sensor_id;sensor_type;location;lat;lon;timestamp;temperature;humidity
65752;DHT22;52486;51.098;13.770;2023-04-09T00:02:09;20.40;65.10
65752;DHT22;52486;51.098;13.770;2023-04-09T00:04:35;19.80;64.80
65752;DHT22;52486;51.098;13.770;2023-04-09T00:07:01;20.10;65.10
65752;DHT22;52486;51.098;13.770;2023-04-09T00:11:52;21.90;66.10
65752;DHT22;52486;51.098;13.770;2023-04-09T00:16:44;20.80;65.40
65752;DHT22;52486;51.098;13.770;2023-04-09T00:19:09;19.80;65.00
65752;DHT22;52486;51.098;13.770;2023-04-09T00:21:36;19.90;65.10
65752;DHT22;52486;51.098;13.770;2023-04-09T00:24:02;20.40;65.20
65752;DHT22;52486;51.098;13.770;2023-04-09T00:26:27;20.80;65.50
65752;DHT22;52486;51.098;13.770;2023-04-09T00:28:53;19.90;65.10
65752;DHT22;52486;51.098;13.770;2023-04-09T00:33:45;22.10;66.30
65752;DHT22;52486;51.098;13.770;2023-04-09T00:36:11;20.80;65.60
65752;DHT22;52486;51.098;13.770;2023-04-09T00:38:36;19.80;65.00
65752;DHT22;52486;51.098;13.770;2023-04-09T00:41:02;22.00;66.40
65752;DHT22;52486;51.098;13.770;2023-04-09T00:45:54;21.00;65.80
65752;DHT22;52486;51.098;13.770;2023-04-09T00:48:20;20.60;65.40
65752;DHT22;52486;51.098;13.770;2023-04-09T00:50:46;19.70;62.10
65752;DHT22;52486;51.098;13.770;2023-04-09T00:53:13;19.60;65.00
65752;DHT22;52486;51.098;13.770;2023-04-09T00:55:39;20.90;65.70
65752;DHT22;52486;51.098;13.770;2023-04-09T00:58:06;20.40;59.80
65752;DHT22;52486;51.098;13.770;2023-04-09T01:00:31;21.20;66.00
65752;DHT22;52486;51.098;13.770;2023-04-09T01:02:58;20.00;65.20
65752;DHT22;52486;51.098;13.770;2023-04-09T01:05:37;19.60;65.10
65752;DHT22;52486;51.098;13.770;2023-04-09T01:08:18;20.20;65.40
65752;DHT22;52486;51.098;13.770;2023-04-09T01:13:51;20.00;65.40
65752;DHT22;52486;51.098;13.770;2023-04-09T01:16:20;19.60;65.20
65752;DHT22;52486;51.098;13.770;2023-04-09T01:18:56;20.80;65.80
65752;DHT22;52486;51.098;13.770;2023-04-09T01:21:28;21.00;66.70
65752;DHT22;52486;51.098;13.770;2023-04-09T01:27:08;20.40;53.40
65752;DHT22;52486;51.098;13.770;2023-04-09T01:29:38;19.40;65.10
65752;DHT22;52486;51.098;13.770;2023-04-09T01:32:06;20.30;65.80
65752;DHT22;52486;51.098;13.770;2023-04-09T01:34:32;19.80;65.40
65752;DHT22;52486;51.098;13.770;2023-04-09T01:37:01;20.10;62.80
65752;DHT22;52486;51.098;13.770;2023-04-09T01:39:27;20.30;65.60
65752;DHT22;52486;51.098;13.770;2023-04-09T01:41:54;19.50;65.30
65752;DHT22;52486;51.098;13.770;2023-04-09T01:44:22;20.70;66.10
65752;DHT22;52486;51.098;13.770;2023-04-09T01:46:49;21.50;66.30
65752;DHT22;52486;51.098;13.770;2023-04-09T01:49:16;20.40;55.50
65752;DHT22;52486;51.098;13.770;2023-04-09T01:54:09;21.40;66.10
65752;DHT22;52486;51.098;13.770;2023-04-09T01:56:42;19.30;65.20
65752;DHT22;52486;51.098;13.770;2023-04-09T02:01:41;19.70;65.50
65752;DHT22;52486;51.098;13.770;2023-04-09T02:04:32;19.60;65.30
65752;DHT22;52486;51.098;13.770;2023-04-09T02:07:04;20.50;55.70
65752;DHT22;52486;51.098;13.770;2023-04-09T02:09:33;19.30;65.10
65752;DHT22;52486;51.098;13.770;2023-04-09T02:12:03;20.20;65.90
65752;DHT22;52486;51.098;13.770;2023-04-09T02:14:31;20.60;55.70
65752;DHT22;52486;51.098;13.770;2023-04-09T02:16:59;20.70;66.10
65752;DHT22;52486;51.098;13.770;2023-04-09T02:19:46;20.30;55.60
65752;DHT22;52486;51.098;13.770;2023-04-09T02:22:12;20.20;65.80
65752;DHT22;52486;51.098;13.770;2023-04-09T02:27:05;19.30;65.30
65752;DHT22;52486;51.098;13.770;2023-04-09T02:31:57;19.80;65.90
65752;DHT22;52486;51.098;13.770;2023-04-09T02:34:23;19.50;65.60
65752;DHT22;52486;51.098;13.770;2023-04-09T02:36:49;19.60;65.50
65752;DHT22;52486;51.098;13.770;2023-04-09T02:46:33;18.80;65.50
65752;DHT22;52486;51.098;13.770;2023-04-09T02:48:58;20.90;60.60
65752;DHT22;52486;51.098;13.770;2023-04-09T02:51:24;21.50;66.60
65752;DHT22;52486;51.098;13.770;2023-04-09T02:53:50;21.20;66.30
65752;DHT22;52486;51.098;13.770;2023-04-09T02:56:16;20.80;66.20
65752;DHT22;52486;51.098;13.770;2023-04-09T02:58:41;19.90;65.60
65752;DHT22;52486;51.098;13.770;2023-04-09T03:01:07;19.30;65.30
65752;DHT22;52486;51.098;13.770;2023-04-09T03:03:32;20.50;65.90
65752;DHT22;52486;51.098;13.770;2023-04-09T03:05:58;21.20;66.60
65752;DHT22;52486;51.098;13.770;2023-04-09T03:08:24;19.20;65.40
65752;DHT22;52486;51.098;13.770;2023-04-09T03:10:49;19.50;65.40
65752;DHT22;52486;51.098;13.770;2023-04-09T03:13:15;19.80;65.30
65752;DHT22;52486;51.098;13.770;2023-04-09T03:15:41;20.40;66.00
65752;DHT22;52486;51.098;13.770;2023-04-09T03:18:06;20.00;65.70
65752;DHT22;52486;51.098;13.770;2023-04-09T03:20:32;20.80;66.30
65752;DHT22;52486;51.098;13.770;2023-04-09T03:22:59;20.60;66.30
65752;DHT22;52486;51.098;13.770;2023-04-09T03:25:24;21.30;66.60
65752;DHT22;52486;51.098;13.770;2023-04-09T03:30:16;19.40;65.80
65752;DHT22;52486;51.098;13.770;2023-04-09T03:35:08;19.40;65.40
65752;DHT22;52486;51.098;13.770;2023-04-09T03:40:00;19.00;65.40
65752;DHT22;52486;51.098;13.770;2023-04-09T03:42:25;20.30;66.10
65752;DHT22;52486;51.098;13.770;2023-04-09T03:44:54;20.40;66.00
65752;DHT22;52486;51.098;13.770;2023-04-09T03:47:20;18.40;65.50
65752;DHT22;52486;51.098;13.770;2023-04-09T03:49:46;19.40;60.60
65752;DHT22;52486;51.098;13.770;2023-04-09T03:52:11;21.40;66.70
65752;DHT22;52486;51.098;13.770;2023-04-09T03:54:37;19.60;66.40
65752;DHT22;52486;51.098;13.770;2023-04-09T03:57:03;19.70;65.60
65752;DHT22;52486;51.098;13.770;2023-04-09T04:01:55;19.70;66.20
65752;DHT22;52486;51.098;13.770;2023-04-09T04:04:20;19.70;65.80
65752;DHT22;52486;51.098;13.770;2023-04-09T04:06:46;21.70;66.90
65752;DHT22;52486;51.098;13.770;2023-04-09T04:09:12;20.40;66.00
65752;DHT22;52486;51.098;13.770;2023-04-09T04:11:37;19.10;65.30
65752;DHT22;52486;51.098;13.770;2023-04-09T04:16:29;19.10;57.10
65752;DHT22;52486;51.098;13.770;2023-04-09T04:18:55;21.30;56.70
65752;DHT22;52486;51.098;13.770;2023-04-09T04:21:20;19.60;56.00
65752;DHT22;52486;51.098;13.770;2023-04-09T04:23:46;20.20;66.40
65752;DHT22;52486;51.098;13.770;2023-04-09T04:26:12;20.60;66.20
65752;DHT22;52486;51.098;13.770;2023-04-09T04:28:38;19.60;65.70
65752;DHT22;52486;51.098;13.770;2023-04-09T04:31:07;19.90;55.40
65752;DHT22;52486;51.098;13.770;2023-04-09T04:33:34;19.20;65.50
65752;DHT22;52486;51.098;13.770;2023-04-09T04:36:10;21.40;66.80
65752;DHT22;52486;51.098;13.770;2023-04-09T04:38:37;20.00;66.00
65752;DHT22;52486;51.098;13.770;2023-04-09T04:41:03;21.70;67.10
65752;DHT22;52486;51.098;13.770;2023-04-09T04:43:29;19.10;65.50
65752;DHT22;52486;51.098;13.770;2023-04-09T04:45:55;19.40;65.50
65752;DHT22;52486;51.098;13.770;2023-04-09T04:50:54;21.50;66.60
65752;DHT22;52486;51.098;13.770;2023-04-09T04:53:20;18.70;65.80
65752;DHT22;52486;51.098;13.770;2023-04-09T04:58:12;19.40;65.70
65752;DHT22;52486;51.098;13.770;2023-04-09T05:00:37;20.20;61.10
65752;DHT22;52486;51.098;13.770;2023-04-09T05:05:29;21.50;66.80
65752;DHT22;52486;51.098;13.770;2023-04-09T05:10:20;18.80;65.50
65752;DHT22;52486;51.098;13.770;2023-04-09T05:12:46;19.50;65.70
65752;DHT22;52486;51.098;13.770;2023-04-09T05:15:12;19.30;65.70
65752;DHT22;52486;51.098;13.770;2023-04-09T05:17:37;19.20;65.60
65752;DHT22;52486;51.098;13.770;2023-04-09T05:27:21;19.20;65.90
65752;DHT22;52486;51.098;13.770;2023-04-09T05:29:50;20.20;56.50
65752;DHT22;52486;51.098;13.770;2023-04-09T05:32:15;20.10;66.10
65752;DHT22;52486;51.098;13.770;2023-04-09T05:34:41;20.10;66.30
65752;DHT22;52486;51.098;13.770;2023-04-09T05:39:33;19.90;65.70
65752;DHT22;52486;51.098;13.770;2023-04-09T05:41:59;18.60;65.60
65752;DHT22;52486;51.098;13.770;2023-04-09T05:44:25;19.20;65.70
65752;DHT22;52486;51.098;13.770;2023-04-09T05:46:50;18.50;66.00
65752;DHT22;52486;51.098;13.770;2023-04-09T05:51:42;21.30;66.70
65752;DHT22;52486;51.098;13.770;2023-04-09T05:54:08;19.70;65.80
65752;DHT22;52486;51.098;13.770;2023-04-09T05:56:34;19.00;65.40
65752;DHT22;52486;51.098;13.770;2023-04-09T06:01:26;21.50;67.10
65752;DHT22;52486;51.098;13.770;2023-04-09T06:06:18;18.90;65.20
65752;DHT22;52486;51.098;13.770;2023-04-09T06:08:43;19.10;65.20
65752;DHT22;52486;51.098;13.770;2023-04-09T06:11:10;19.70;65.90
65752;DHT22;52486;51.098;13.770;2023-04-09T06:13:36;20.60;66.30
65752;DHT22;52486;51.098;13.770;2023-04-09T06:16:06;20.60;66.40
65752;DHT22;52486;51.098;13.770;2023-04-09T06:18:32;20.30;56.10
65752;DHT22;52486;51.098;13.770;2023-04-09T06:21:04;19.50;65.50
65752;DHT22;52486;51.098;13.770;2023-04-09T06:23:32;20.80;66.40
65752;DHT22;52486;51.098;13.770;2023-04-09T06:25:58;19.10;65.30
65752;DHT22;52486;51.098;13.770;2023-04-09T06:28:24;21.70;57.30
65752;DHT22;52486;51.098;13.770;2023-04-09T06:33:15;20.20;66.40
65752;DHT22;52486;51.098;13.770;2023-04-09T06:35:41;19.50;65.40
65752;DHT22;52486;51.098;13.770;2023-04-09T06:38:07;20.00;65.60
65752;DHT22;52486;51.098;13.770;2023-04-09T06:40:37;19.20;65.30
65752;DHT22;52486;51.098;13.770;2023-04-09T06:43:03;21.40;66.40
65752;DHT22;52486;51.098;13.770;2023-04-09T06:45:30;19.80;54.90
65752;DHT22;52486;51.098;13.770;2023-04-09T06:47:57;20.30;65.70
65752;DHT22;52486;51.098;13.770;2023-04-09T06:50:23;20.00;65.60
65752;DHT22;52486;51.098;13.770;2023-04-09T06:52:49;21.20;66.20
65752;DHT22;52486;51.098;13.770;2023-04-09T06:55:15;20.80;61.80
65752;DHT22;52486;51.098;13.770;2023-04-09T07:07:27;19.20;65.30
65752;DHT22;52486;51.098;13.770;2023-04-09T07:09:53;21.80;66.60
65752;DHT22;52486;51.098;13.770;2023-04-09T07:12:32;19.80;64.60
65752;DHT22;52486;51.098;13.770;2023-04-09T07:15:04;20.40;53.40
65752;DHT22;52486;51.098;13.770;2023-04-09T07:17:31;19.40;65.10
65752;DHT22;52486;51.098;13.770;2023-04-09T07:22:24;21.50;66.20
65752;DHT22;52486;51.098;13.770;2023-04-09T07:24:51;21.90;66.70
65752;DHT22;52486;51.098;13.770;2023-04-09T07:27:21;19.40;65.10
65752;DHT22;52486;51.098;13.770;2023-04-09T07:37:07;19.50;65.10
65752;DHT22;52486;51.098;13.770;2023-04-09T07:39:32;20.50;65.80
65752;DHT22;52486;51.098;13.770;2023-04-09T07:42:01;20.10;65.50
65752;DHT22;52486;51.098;13.770;2023-04-09T07:44:27;21.00;66.00
65752;DHT22;52486;51.098;13.770;2023-04-09T07:46:53;20.60;65.70
65752;DHT22;52486;51.098;13.770;2023-04-09T07:49:19;19.40;65.10
65752;DHT22;52486;51.098;13.770;2023-04-09T07:51:46;19.30;65.10
65752;DHT22;52486;51.098;13.770;2023-04-09T07:54:11;20.10;65.50
65752;DHT22;52486;51.098;13.770;2023-04-09T07:56:37;19.70;65.10
65752;DHT22;52486;51.098;13.770;2023-04-09T07:59:03;19.20;65.00
65752;DHT22;52486;51.098;13.770;2023-04-09T08:01:29;19.30;65.20
65752;DHT22;52486;51.098;13.770;2023-04-09T08:03:54;19.50;65.20
65752;DHT22;52486;51.098;13.770;2023-04-09T08:06:20;20.60;65.80
65752;DHT22;52486;51.098;13.770;2023-04-09T08:08:46;19.50;65.00
65752;DHT22;52486;51.098;13.770;2023-04-09T08:11:11;19.40;64.80
65752;DHT22;52486;51.098;13.770;2023-04-09T08:13:37;19.20;65.00
65752;DHT22;52486;51.098;13.770;2023-04-09T08:16:03;19.40;64.90
65752;DHT22;52486;51.098;13.770;2023-04-09T08:18:29;20.80;65.70
65752;DHT22;52486;51.098;13.770;2023-04-09T08:20:55;19.40;64.80
65752;DHT22;52486;51.098;13.770;2023-04-09T08:25:47;19.90;65.00
65752;DHT22;52486;51.098;13.770;2023-04-09T08:28:13;21.80;66.20
65752;DHT22;52486;51.098;13.770;2023-04-09T08:33:04;19.80;57.30
65752;DHT22;52486;51.098;13.770;2023-04-09T08:37:57;20.30;64.90
65752;DHT22;52486;51.098;13.770;2023-04-09T08:40:23;19.70;64.50
65752;DHT22;52486;51.098;13.770;2023-04-09T08:42:53;20.40;54.90
65752;DHT22;52486;51.098;13.770;2023-04-09T08:45:20;20.90;60.30
65752;DHT22;52486;51.098;13.770;2023-04-09T08:47:48;19.50;64.60
65752;DHT22;52486;51.098;13.770;2023-04-09T08:50:14;21.80;65.50
65752;DHT22;52486;51.098;13.770;2023-04-09T08:52:40;20.10;64.80
65752;DHT22;52486;51.098;13.770;2023-04-09T08:55:07;19.50;64.20
65752;DHT22;52486;51.098;13.770;2023-04-09T08:57:39;19.70;64.30
65752;DHT22;52486;51.098;13.770;2023-04-09T09:00:05;19.90;64.20
65752;DHT22;52486;51.098;13.770;2023-04-09T09:02:31;19.50;64.10
65752;DHT22;52486;51.098;13.770;2023-04-09T09:04:57;20.10;64.30
65752;DHT22;52486;51.098;13.770;2023-04-09T09:07:28;22.20;65.50
65752;DHT22;52486;51.098;13.770;2023-04-09T09:09:56;20.60;54.40
65752;DHT22;52486;51.098;13.770;2023-04-09T09:12:36;20.00;56.30
65752;DHT22;52486;51.098;13.770;2023-04-09T09:15:04;19.90;64.20
65752;DHT22;52486;51.098;13.770;2023-04-09T09:17:30;20.10;64.20
65752;DHT22;52486;51.098;13.770;2023-04-09T09:19:56;20.80;55.20
65752;DHT22;52486;51.098;13.770;2023-04-09T09:22:23;20.90;54.40
65752;DHT22;52486;51.098;13.770;2023-04-09T09:24:50;22.20;65.10
65752;DHT22;52486;51.098;13.770;2023-04-09T09:27:36;22.10;65.10
65752;DHT22;52486;51.098;13.770;2023-04-09T09:30:05;21.10;54.30
65752;DHT22;52486;51.098;13.770;2023-04-09T09:32:34;21.10;54.30
65752;DHT22;52486;51.098;13.770;2023-04-09T09:35:04;20.80;64.20
65752;DHT22;52486;51.098;13.770;2023-04-09T09:37:31;20.80;54.30
65752;DHT22;52486;51.098;13.770;2023-04-09T09:39:57;21.10;52.80
65752;DHT22;52486;51.098;13.770;2023-04-09T09:44:49;21.30;52.60
65752;DHT22;52486;51.098;13.770;2023-04-09T09:47:17;21.00;64.20
65752;DHT22;52486;51.098;13.770;2023-04-09T09:49:44;20.40;63.70
65752;DHT22;52486;51.098;13.770;2023-04-09T09:52:11;21.80;64.50
65752;DHT22;52486;51.098;13.770;2023-04-09T09:54:41;21.60;64.50
65752;DHT22;52486;51.098;13.770;2023-04-09T09:57:10;21.50;55.00
65752;DHT22;52486;51.098;13.770;2023-04-09T09:59:42;19.80;63.70
65752;DHT22;52486;51.098;13.770;2023-04-09T10:02:20;20.80;63.90
65752;DHT22;52486;51.098;13.770;2023-04-09T10:04:48;21.30;53.90
65752;DHT22;52486;51.098;13.770;2023-04-09T10:09:46;21.40;53.70
65752;DHT22;52486;51.098;13.770;2023-04-09T10:12:13;20.20;63.40
65752;DHT22;52486;51.098;13.770;2023-04-09T10:14:39;21.00;63.80
65752;DHT22;52486;51.098;13.770;2023-04-09T10:17:06;21.60;53.80
65752;DHT22;52486;51.098;13.770;2023-04-09T10:19:37;21.50;63.80
65752;DHT22;52486;51.098;13.770;2023-04-09T10:22:10;21.40;63.00
65752;DHT22;52486;51.098;13.770;2023-04-09T10:24:36;20.70;63.80
65752;DHT22;52486;51.098;13.770;2023-04-09T10:27:13;21.70;63.10
65752;DHT22;52486;51.098;13.770;2023-04-09T10:29:47;22.30;64.40
65752;DHT22;52486;51.098;13.770;2023-04-09T10:32:20;22.10;64.00
65752;DHT22;52486;51.098;13.770;2023-04-09T10:34:48;20.70;63.10
65752;DHT22;52486;51.098;13.770;2023-04-09T10:37:26;22.70;64.40
65752;DHT22;52486;51.098;13.770;2023-04-09T10:39:52;23.10;64.60
65752;DHT22;52486;51.098;13.770;2023-04-09T10:42:38;22.70;64.90
65752;DHT22;52486;51.098;13.770;2023-04-09T10:47:38;21.60;53.70
65752;DHT22;52486;51.098;13.770;2023-04-09T10:50:21;23.00;64.50
65752;DHT22;52486;51.098;13.770;2023-04-09T10:52:53;23.20;64.70
65752;DHT22;52486;51.098;13.770;2023-04-09T10:55:38;23.30;55.50
65752;DHT22;52486;51.098;13.770;2023-04-09T10:58:05;20.50;62.20
65752;DHT22;52486;51.098;13.770;2023-04-09T11:00:37;23.50;65.50
65752;DHT22;52486;51.098;13.770;2023-04-09T11:03:19;21.60;51.40
65752;DHT22;52486;51.098;13.770;2023-04-09T11:06:04;21.90;51.50
65752;DHT22;52486;51.098;13.770;2023-04-09T11:08:33;22.70;64.40
65752;DHT22;52486;51.098;13.770;2023-04-09T11:11:00;21.60;53.20
65752;DHT22;52486;51.098;13.770;2023-04-09T11:13:28;21.60;52.80
65752;DHT22;52486;51.098;13.770;2023-04-09T11:15:55;20.70;63.40
65752;DHT22;52486;51.098;13.770;2023-04-09T11:20:47;21.80;63.60
65752;DHT22;52486;51.098;13.770;2023-04-09T11:23:14;21.10;63.50
65752;DHT22;52486;51.098;13.770;2023-04-09T11:30:33;23.60;64.90
65752;DHT22;52486;51.098;13.770;2023-04-09T11:33:00;21.10;63.40
65752;DHT22;52486;51.098;13.770;2023-04-09T11:35:26;20.80;63.20
65752;DHT22;52486;51.098;13.770;2023-04-09T11:40:23;22.50;63.80
65752;DHT22;52486;51.098;13.770;2023-04-09T11:42:50;22.00;64.80
65752;DHT22;52486;51.098;13.770;2023-04-09T11:45:17;21.30;58.60
65752;DHT22;52486;51.098;13.770;2023-04-09T11:47:44;22.30;64.20
65752;DHT22;52486;51.098;13.770;2023-04-09T11:50:11;22.20;53.50
65752;DHT22;52486;51.098;13.770;2023-04-09T11:52:37;22.10;54.20
65752;DHT22;52486;51.098;13.770;2023-04-09T11:55:04;23.10;62.90
65752;DHT22;52486;51.098;13.770;2023-04-09T11:57:43;21.20;63.00
65752;DHT22;52486;51.098;13.770;2023-04-09T12:00:13;22.80;63.90
65752;DHT22;52486;51.098;13.770;2023-04-09T12:02:47;23.40;64.20
65752;DHT22;52486;51.098;13.770;2023-04-09T12:05:24;23.20;63.90
65752;DHT22;52486;51.098;13.770;2023-04-09T12:07:55;23.00;63.80
65752;DHT22;52486;51.098;13.770;2023-04-09T12:10:26;23.30;64.10
65752;DHT22;52486;51.098;13.770;2023-04-09T12:12:52;21.40;62.70
65752;DHT22;52486;51.098;13.770;2023-04-09T12:15:20;21.80;63.20
65752;DHT22;52486;51.098;13.770;2023-04-09T12:17:48;23.80;63.90
65752;DHT22;52486;51.098;13.770;2023-04-09T12:20:13;21.80;62.90
65752;DHT22;52486;51.098;13.770;2023-04-09T12:22:50;21.50;62.40
65752;DHT22;52486;51.098;13.770;2023-04-09T12:25:15;21.40;62.40
65752;DHT22;52486;51.098;13.770;2023-04-09T12:30:07;23.50;63.10
65752;DHT22;52486;51.098;13.770;2023-04-09T12:35:01;21.80;62.00
65752;DHT22;52486;51.098;13.770;2023-04-09T12:39:53;21.90;62.00
65752;DHT22;52486;51.098;13.770;2023-04-09T12:42:19;22.70;62.60
65752;DHT22;52486;51.098;13.770;2023-04-09T12:44:44;23.10;62.80
65752;DHT22;52486;51.098;13.770;2023-04-09T12:47:10;21.80;62.00
65752;DHT22;52486;51.098;13.770;2023-04-09T12:49:36;23.60;53.50
65752;DHT22;52486;51.098;13.770;2023-04-09T12:52:02;24.10;63.20
65752;DHT22;52486;51.098;13.770;2023-04-09T12:54:28;21.70;61.90
65752;DHT22;52486;51.098;13.770;2023-04-09T12:56:54;23.10;53.20
65752;DHT22;52486;51.098;13.770;2023-04-09T12:59:19;21.90;61.80
65752;DHT22;52486;51.098;13.770;2023-04-09T13:01:45;23.70;63.00
65752;DHT22;52486;51.098;13.770;2023-04-09T13:04:11;22.50;61.80
65752;DHT22;52486;51.098;13.770;2023-04-09T13:06:37;23.60;62.70
65752;DHT22;52486;51.098;13.770;2023-04-09T13:13:54;22.30;61.70
65752;DHT22;52486;51.098;13.770;2023-04-09T13:18:46;22.80;61.50
65752;DHT22;52486;51.098;13.770;2023-04-09T13:21:12;22.20;61.10
65752;DHT22;52486;51.098;13.770;2023-04-09T13:23:43;22.30;61.20
65752;DHT22;52486;51.098;13.770;2023-04-09T13:26:09;22.90;61.50
65752;DHT22;52486;51.098;13.770;2023-04-09T13:28:34;24.20;61.90
65752;DHT22;52486;51.098;13.770;2023-04-09T13:31:01;23.70;62.10
65752;DHT22;52486;51.098;13.770;2023-04-09T13:33:27;23.60;62.80
65752;DHT22;52486;51.098;13.770;2023-04-09T13:35:53;23.20;61.30
65752;DHT22;52486;51.098;13.770;2023-04-09T13:40:44;22.90;61.00
65752;DHT22;52486;51.098;13.770;2023-04-09T13:43:10;22.80;60.80
65752;DHT22;52486;51.098;13.770;2023-04-09T13:45:36;23.50;52.00
65752;DHT22;52486;51.098;13.770;2023-04-09T13:48:01;24.90;62.20
65752;DHT22;52486;51.098;13.770;2023-04-09T13:50:27;23.80;52.20
65752;DHT22;52486;51.098;13.770;2023-04-09T13:55:19;22.80;61.20
65752;DHT22;52486;51.098;13.770;2023-04-09T13:57:45;23.30;61.00
65752;DHT22;52486;51.098;13.770;2023-04-09T14:00:10;24.50;61.80
65752;DHT22;52486;51.098;13.770;2023-04-09T14:05:02;24.70;62.00
65752;DHT22;52486;51.098;13.770;2023-04-09T14:07:28;23.10;61.00
65752;DHT22;52486;51.098;13.770;2023-04-09T14:09:54;24.70;52.60
65752;DHT22;52486;51.098;13.770;2023-04-09T14:17:12;22.60;61.10
65752;DHT22;52486;51.098;13.770;2023-04-09T14:19:37;22.80;61.10
65752;DHT22;52486;51.098;13.770;2023-04-09T14:27:05;24.80;54.20
65752;DHT22;52486;51.098;13.770;2023-04-09T14:29:30;24.60;62.10
65752;DHT22;52486;51.098;13.770;2023-04-09T14:36:48;23.40;61.10
65752;DHT22;52486;51.098;13.770;2023-04-09T14:39:14;24.50;62.10
65752;DHT22;52486;51.098;13.770;2023-04-09T14:41:40;23.40;61.40
65752;DHT22;52486;51.098;13.770;2023-04-09T14:44:06;22.90;60.90
65752;DHT22;52486;51.098;13.770;2023-04-09T14:48:58;25.20;62.30
65752;DHT22;52486;51.098;13.770;2023-04-09T14:51:23;23.50;60.90
65752;DHT22;52486;51.098;13.770;2023-04-09T14:53:49;23.20;60.80
65752;DHT22;52486;51.098;13.770;2023-04-09T14:56:15;23.40;60.90
65752;DHT22;52486;51.098;13.770;2023-04-09T14:58:41;24.20;51.60
65752;DHT22;52486;51.098;13.770;2023-04-09T15:01:06;25.30;61.40
65752;DHT22;52486;51.098;13.770;2023-04-09T15:05:58;23.80;60.10
65752;DHT22;52486;51.098;13.770;2023-04-09T15:08:24;24.70;61.10
65752;DHT22;52486;51.098;13.770;2023-04-09T15:10:49;26.50;62.60
65752;DHT22;52486;51.098;13.770;2023-04-09T15:13:15;25.70;61.30
65752;DHT22;52486;51.098;13.770;2023-04-09T15:15:41;23.70;60.00
65752;DHT22;52486;51.098;13.770;2023-04-09T15:18:08;24.00;60.20
65752;DHT22;52486;51.098;13.770;2023-04-09T15:20:37;23.40;60.20
65752;DHT22;52486;51.098;13.770;2023-04-09T15:25:29;24.00;59.90
65752;DHT22;52486;51.098;13.770;2023-04-09T15:27:55;24.70;51.10
65752;DHT22;52486;51.098;13.770;2023-04-09T15:30:21;23.20;59.90
65752;DHT22;52486;51.098;13.770;2023-04-09T15:32:46;23.00;60.50
65752;DHT22;52486;51.098;13.770;2023-04-09T15:37:43;24.50;61.10
65752;DHT22;52486;51.098;13.770;2023-04-09T15:40:09;24.10;60.80
65752;DHT22;52486;51.098;13.770;2023-04-09T15:45:01;24.00;62.10
65752;DHT22;52486;51.098;13.770;2023-04-09T15:47:26;25.10;61.30
65752;DHT22;52486;51.098;13.770;2023-04-09T15:49:52;23.80;61.00
65752;DHT22;52486;51.098;13.770;2023-04-09T15:52:18;24.00;60.80
65752;DHT22;52486;51.098;13.770;2023-04-09T15:54:44;23.20;60.40
65752;DHT22;52486;51.098;13.770;2023-04-09T15:57:10;25.00;61.40
65752;DHT22;52486;51.098;13.770;2023-04-09T15:59:36;24.60;57.70
65752;DHT22;52486;51.098;13.770;2023-04-09T16:02:01;23.30;60.90
65752;DHT22;52486;51.098;13.770;2023-04-09T16:04:28;25.10;62.10
65752;DHT22;52486;51.098;13.770;2023-04-09T16:06:54;23.60;60.70
65752;DHT22;52486;51.098;13.770;2023-04-09T16:09:21;23.20;61.10
65752;DHT22;52486;51.098;13.770;2023-04-09T16:11:46;23.20;60.50
65752;DHT22;52486;51.098;13.770;2023-04-09T16:14:12;23.20;60.70
65752;DHT22;52486;51.098;13.770;2023-04-09T16:16:38;24.10;51.70
65752;DHT22;52486;51.098;13.770;2023-04-09T16:21:30;24.10;62.20
65752;DHT22;52486;51.098;13.770;2023-04-09T16:28:48;24.10;48.80
65752;DHT22;52486;51.098;13.770;2023-04-09T16:31:14;23.30;60.80
65752;DHT22;52486;51.098;13.770;2023-04-09T16:40:58;24.10;48.90
65752;DHT22;52486;51.098;13.770;2023-04-09T16:43:24;24.70;61.90
65752;DHT22;52486;51.098;13.770;2023-04-09T16:45:50;23.30;61.00
65752;DHT22;52486;51.098;13.770;2023-04-09T16:53:08;23.00;61.00
65752;DHT22;52486;51.098;13.770;2023-04-09T16:55:34;24.70;62.70
65752;DHT22;52486;51.098;13.770;2023-04-09T16:58:00;24.80;62.40
65752;DHT22;52486;51.098;13.770;2023-04-09T17:00:26;25.00;62.70
65752;DHT22;52486;51.098;13.770;2023-04-09T17:02:52;22.80;61.40
65752;DHT22;52486;51.098;13.770;2023-04-09T17:05:19;23.90;61.80
65752;DHT22;52486;51.098;13.770;2023-04-09T17:07:46;24.60;62.20
65752;DHT22;52486;51.098;13.770;2023-04-09T17:15:04;23.50;61.80
65752;DHT22;52486;51.098;13.770;2023-04-09T17:17:30;24.50;62.50
65752;DHT22;52486;51.098;13.770;2023-04-09T17:24:51;24.90;62.80
65752;DHT22;52486;51.098;13.770;2023-04-09T17:27:17;22.90;62.00
65752;DHT22;52486;51.098;13.770;2023-04-09T17:29:44;22.50;61.60
65752;DHT22;52486;51.098;13.770;2023-04-09T17:32:10;22.80;61.70
65752;DHT22;52486;51.098;13.770;2023-04-09T17:34:35;23.50;62.30
65752;DHT22;52486;51.098;13.770;2023-04-09T17:37:01;22.60;61.70
65752;DHT22;52486;51.098;13.770;2023-04-09T17:44:23;23.80;62.80
65752;DHT22;52486;51.098;13.770;2023-04-09T17:46:49;22.50;62.20
65752;DHT22;52486;51.098;13.770;2023-04-09T17:51:41;23.90;63.00
65752;DHT22;52486;51.098;13.770;2023-04-09T17:56:33;24.60;63.50
65752;DHT22;52486;51.098;13.770;2023-04-09T17:59:03;23.10;62.50
65752;DHT22;52486;51.098;13.770;2023-04-09T18:01:29;22.00;62.10
65752;DHT22;52486;51.098;13.770;2023-04-09T18:03:54;23.00;62.60
65752;DHT22;52486;51.098;13.770;2023-04-09T18:06:20;24.30;63.20
65752;DHT22;52486;51.098;13.770;2023-04-09T18:08:46;22.30;62.60
65752;DHT22;52486;51.098;13.770;2023-04-09T18:16:14;23.00;62.50
65752;DHT22;52486;51.098;13.770;2023-04-09T18:18:41;21.90;62.50
65752;DHT22;52486;51.098;13.770;2023-04-09T18:21:07;22.60;62.40
65752;DHT22;52486;51.098;13.770;2023-04-09T18:23:33;24.40;63.50
65752;DHT22;52486;51.098;13.770;2023-04-09T18:25:59;23.30;53.60
65752;DHT22;52486;51.098;13.770;2023-04-09T18:30:52;22.50;51.40
65752;DHT22;52486;51.098;13.770;2023-04-09T18:33:22;23.20;51.50
65752;DHT22;52486;51.098;13.770;2023-04-09T18:35:47;22.40;62.70
65752;DHT22;52486;51.098;13.770;2023-04-09T18:38:13;23.30;63.10
65752;DHT22;52486;51.098;13.770;2023-04-09T18:40:41;22.90;62.80
65752;DHT22;52486;51.098;13.770;2023-04-09T18:45:33;23.90;63.20
65752;DHT22;52486;51.098;13.770;2023-04-09T18:47:58;22.30;62.50
65752;DHT22;52486;51.098;13.770;2023-04-09T18:50:24;23.00;53.60
65752;DHT22;52486;51.098;13.770;2023-04-09T18:55:16;22.50;62.40